sensor_id;sensor_type;location;lat;lon;timestamp;temperature;humidity
52859;DHT22;38721;53.098;6.596;2023-02-01T00:02:26;6.30;99.90
52859;DHT22;38721;53.098;6.596;2023-02-01T00:04:52;6.30;99.90
52859;DHT22;38721;53.098;6.596;2023-02-01T00:07:18;6.30;99.90
52859;DHT22;38721;53.098;6.596;2023-02-01T00:09:44;6.20;99.90
52859;DHT22;38721;53.098;6.596;2023-02-01T00:12:10;6.30;99.90
52859;DHT22;38721;53.098;6.596;2023-02-01T00:14:35;6.30;99.90
52859;DHT22;38721;53.098;6.596;2023-02-01T00:17:05;6.40;1.00
52859;DHT22;38721;53.098;6.596;2023-02-01T00:19:32;6.30;23.70
52859;DHT22;38721;53.098;6.596;2023-02-01T00:21:57;6.30;7.80
52859;DHT22;38721;53.098;6.596;2023-02-01T00:24:23;6.30;51.40
52859;DHT22;38721;53.098;6.596;2023-02-01T00:26:49;6.40;1.00
52859;DHT22;38721;53.098;6.596;2023-02-01T00:29:19;6.40;1.00
52859;DHT22;38721;53.098;6.596;2023-02-01T00:31:46;6.40;1.00
52859;DHT22;38721;53.098;6.596;2023-02-01T00:34:14;6.40;1.00
52859;DHT22;38721;53.098;6.596;2023-02-01T00:36:41;6.40;1.00
52859;DHT22;38721;53.098;6.596;2023-02-01T00:39:08;6.30;1.00
52859;DHT22;38721;53.098;6.596;2023-02-01T00:41:33;6.50;99.90
52859;DHT22;38721;53.098;6.596;2023-02-01T00:43:59;6.40;99.90
52859;DHT22;38721;53.098;6.596;2023-02-01T00:46:25;6.50;99.90
52859;DHT22;38721;53.098;6.596;2023-02-01T00:48:51;6.40;99.90
52859;DHT22;38721;53.098;6.596;2023-02-01T00:51:20;6.40;99.90
52859;DHT22;38721;53.098;6.596;2023-02-01T00:53:46;6.40;99.90
52859;DHT22;38721;53.098;6.596;2023-02-01T00:56:12;6.40;99.90
52859;DHT22;38721;53.098;6.596;2023-02-01T00:58:38;6.40;99.90
52859;DHT22;38721;53.098;6.596;2023-02-01T01:01:16;6.40;1.00
52859;DHT22;38721;53.098;6.596;2023-02-01T01:03:44;6.30;1.00
52859;DHT22;38721;53.098;6.596;2023-02-01T01:06:16;6.40;1.00
52859;DHT22;38721;53.098;6.596;2023-02-01T01:08:42;6.40;1.00
52859;DHT22;38721;53.098;6.596;2023-02-01T01:11:14;6.40;1.00
52859;DHT22;38721;53.098;6.596;2023-02-01T01:13:40;6.40;1.00
52859;DHT22;38721;53.098;6.596;2023-02-01T01:16:10;6.40;1.00
52859;DHT22;38721;53.098;6.596;2023-02-01T01:18:36;6.40;1.00
52859;DHT22;38721;53.098;6.596;2023-02-01T01:21:04;6.50;1.00
52859;DHT22;38721;53.098;6.596;2023-02-01T01:23:30;6.50;1.00
52859;DHT22;38721;53.098;6.596;2023-02-01T01:25:56;6.50;1.00
52859;DHT22;38721;53.098;6.596;2023-02-01T01:28:22;6.40;1.00
52859;DHT22;38721;53.098;6.596;2023-02-01T01:30:48;6.50;1.00
52859;DHT22;38721;53.098;6.596;2023-02-01T01:33:13;6.50;2.20
52859;DHT22;38721;53.098;6.596;2023-02-01T01:35:39;6.50;1.00
52859;DHT22;38721;53.098;6.596;2023-02-01T01:38:05;6.50;1.00
52859;DHT22;38721;53.098;6.596;2023-02-01T01:40:31;6.50;1.00
52859;DHT22;38721;53.098;6.596;2023-02-01T01:42:57;6.60;1.00
52859;DHT22;38721;53.098;6.596;2023-02-01T01:45:30;6.60;1.00
52859;DHT22;38721;53.098;6.596;2023-02-01T01:48:47;6.60;1.00
52859;DHT22;38721;53.098;6.596;2023-02-01T01:50:51;6.60;62.20
52859;DHT22;38721;53.098;6.596;2023-02-01T01:53:24;6.50;99.90
52859;DHT22;38721;53.098;6.596;2023-02-01T01:55:53;6.50;99.90
52859;DHT22;38721;53.098;6.596;2023-02-01T01:58:22;6.50;99.90
52859;DHT22;38721;53.098;6.596;2023-02-01T02:00:49;6.50;99.90
52859;DHT22;38721;53.098;6.596;2023-02-01T02:03:23;6.40;99.90
52859;DHT22;38721;53.098;6.596;2023-02-01T02:05:53;6.30;99.90
52859;DHT22;38721;53.098;6.596;2023-02-01T02:08:19;6.30;99.90
52859;DHT22;38721;53.098;6.596;2023-02-01T02:10:48;6.30;99.90
52859;DHT22;38721;53.098;6.596;2023-02-01T02:13:44;6.20;99.90
52859;DHT22;38721;53.098;6.596;2023-02-01T02:30:34;6.20;99.90
52859;DHT22;38721;53.098;6.596;2023-02-01T02:39:09;6.10;99.90
52859;DHT22;38721;53.098;6.596;2023-02-01T02:42:10;6.00;99.90
52859;DHT22;38721;53.098;6.596;2023-02-01T02:45:09;6.00;99.90
52859;DHT22;38721;53.098;6.596;2023-02-01T02:50:36;6.10;99.90
52859;DHT22;38721;53.098;6.596;2023-02-01T02:53:26;6.10;99.90
52859;DHT22;38721;53.098;6.596;2023-02-01T02:56:12;6.10;99.90
52859;DHT22;38721;53.098;6.596;2023-02-01T02:58:56;6.10;99.90
52859;DHT22;38721;53.098;6.596;2023-02-01T03:01:42;6.20;99.90
52859;DHT22;38721;53.098;6.596;2023-02-01T03:04:27;6.30;99.90
52859;DHT22;38721;53.098;6.596;2023-02-01T03:06:53;6.30;99.90
52859;DHT22;38721;53.098;6.596;2023-02-01T03:09:27;6.40;99.90
52859;DHT22;38721;53.098;6.596;2023-02-01T03:12:00;6.40;99.90
52859;DHT22;38721;53.098;6.596;2023-02-01T03:14:48;6.40;99.90
52859;DHT22;38721;53.098;6.596;2023-02-01T03:17:20;6.40;99.90
52859;DHT22;38721;53.098;6.596;2023-02-01T03:19:50;6.40;99.90
52859;DHT22;38721;53.098;6.596;2023-02-01T03:22:20;6.50;99.90
52859;DHT22;38721;53.098;6.596;2023-02-01T03:24:59;6.50;99.90
52859;DHT22;38721;53.098;6.596;2023-02-01T03:32:44;6.50;99.90
52859;DHT22;38721;53.098;6.596;2023-02-01T03:38:28;6.50;99.90
52859;DHT22;38721;53.098;6.596;2023-02-01T03:41:19;6.50;99.90
52859;DHT22;38721;53.098;6.596;2023-02-01T03:44:09;6.50;99.90
52859;DHT22;38721;53.098;6.596;2023-02-01T03:47:10;6.50;99.90
52859;DHT22;38721;53.098;6.596;2023-02-01T03:50:21;6.50;99.90
52859;DHT22;38721;53.098;6.596;2023-02-01T03:52:32;6.50;99.90
52859;DHT22;38721;53.098;6.596;2023-02-01T03:55:05;6.50;99.90
52859;DHT22;38721;53.098;6.596;2023-02-01T03:57:38;6.50;99.90
52859;DHT22;38721;53.098;6.596;2023-02-01T04:00:20;6.60;99.90
52859;DHT22;38721;53.098;6.596;2023-02-01T04:02:47;6.60;99.90
52859;DHT22;38721;53.098;6.596;2023-02-01T04:05:13;6.60;99.90
52859;DHT22;38721;53.098;6.596;2023-02-01T04:07:40;6.60;99.90
52859;DHT22;38721;53.098;6.596;2023-02-01T04:10:09;6.50;99.90
52859;DHT22;38721;53.098;6.596;2023-02-01T04:12:35;6.30;99.90
52859;DHT22;38721;53.098;6.596;2023-02-01T04:15:04;6.40;99.90
52859;DHT22;38721;53.098;6.596;2023-02-01T04:17:30;6.40;99.90
52859;DHT22;38721;53.098;6.596;2023-02-01T04:19:55;6.40;99.90
52859;DHT22;38721;53.098;6.596;2023-02-01T04:22:21;6.40;99.90
52859;DHT22;38721;53.098;6.596;2023-02-01T04:24:47;6.30;99.90
52859;DHT22;38721;53.098;6.596;2023-02-01T04:27:13;6.40;99.90
52859;DHT22;38721;53.098;6.596;2023-02-01T04:29:39;6.50;99.90
52859;DHT22;38721;53.098;6.596;2023-02-01T04:32:05;6.50;99.90
52859;DHT22;38721;53.098;6.596;2023-02-01T04:34:31;6.50;99.90
52859;DHT22;38721;53.098;6.596;2023-02-01T04:36:57;6.50;99.90
52859;DHT22;38721;53.098;6.596;2023-02-01T04:39:23;6.50;99.90
52859;DHT22;38721;53.098;6.596;2023-02-01T04:41:48;6.50;99.90
52859;DHT22;38721;53.098;6.596;2023-02-01T04:44:16;6.50;99.90
52859;DHT22;38721;53.098;6.596;2023-02-01T04:46:42;6.40;99.90
52859;DHT22;38721;53.098;6.596;2023-02-01T04:49:10;6.50;99.90
52859;DHT22;38721;53.098;6.596;2023-02-01T04:51:36;6.50;99.90
52859;DHT22;38721;53.098;6.596;2023-02-01T04:54:03;6.50;99.90
52859;DHT22;38721;53.098;6.596;2023-02-01T04:56:29;6.60;99.90
52859;DHT22;38721;53.098;6.596;2023-02-01T04:58:54;6.50;99.90
52859;DHT22;38721;53.098;6.596;2023-02-01T05:01:22;6.50;99.90
52859;DHT22;38721;53.098;6.596;2023-02-01T05:03:48;6.50;99.90
52859;DHT22;38721;53.098;6.596;2023-02-01T05:06:14;6.50;99.90
52859;DHT22;38721;53.098;6.596;2023-02-01T05:08:40;6.50;99.90
52859;DHT22;38721;53.098;6.596;2023-02-01T05:11:05;6.50;99.90
52859;DHT22;38721;53.098;6.596;2023-02-01T05:13:31;6.60;99.90
52859;DHT22;38721;53.098;6.596;2023-02-01T05:16:16;6.50;99.90
52859;DHT22;38721;53.098;6.596;2023-02-01T05:18:42;6.60;99.90
52859;DHT22;38721;53.098;6.596;2023-02-01T05:21:08;6.50;99.90
52859;DHT22;38721;53.098;6.596;2023-02-01T05:23:36;6.40;99.90
52859;DHT22;38721;53.098;6.596;2023-02-01T05:26:21;6.40;99.90
52859;DHT22;38721;53.098;6.596;2023-02-01T05:28:47;6.40;99.90
52859;DHT22;38721;53.098;6.596;2023-02-01T05:31:13;6.40;99.90
52859;DHT22;38721;53.098;6.596;2023-02-01T05:33:38;6.40;99.90
52859;DHT22;38721;53.098;6.596;2023-02-01T05:36:04;6.50;99.90
52859;DHT22;38721;53.098;6.596;2023-02-01T05:38:30;6.50;99.90
52859;DHT22;38721;53.098;6.596;2023-02-01T05:40:56;6.50;99.90
52859;DHT22;38721;53.098;6.596;2023-02-01T05:43:22;6.50;99.90
52859;DHT22;38721;53.098;6.596;2023-02-01T05:45:48;6.50;99.90
52859;DHT22;38721;53.098;6.596;2023-02-01T05:48:14;6.50;99.90
52859;DHT22;38721;53.098;6.596;2023-02-01T05:50:39;6.60;99.90
52859;DHT22;38721;53.098;6.596;2023-02-01T05:53:05;6.60;99.90
52859;DHT22;38721;53.098;6.596;2023-02-01T05:55:32;6.50;99.90
52859;DHT22;38721;53.098;6.596;2023-02-01T05:57:58;6.60;99.90
52859;DHT22;38721;53.098;6.596;2023-02-01T06:00:23;6.60;99.90
52859;DHT22;38721;53.098;6.596;2023-02-01T06:02:49;6.60;99.90
52859;DHT22;38721;53.098;6.596;2023-02-01T06:05:15;6.60;99.90
52859;DHT22;38721;53.098;6.596;2023-02-01T06:07:41;6.70;99.90
52859;DHT22;38721;53.098;6.596;2023-02-01T06:10:08;6.60;99.90
52859;DHT22;38721;53.098;6.596;2023-02-01T06:12:34;6.60;99.90
52859;DHT22;38721;53.098;6.596;2023-02-01T06:15:00;6.60;99.90
52859;DHT22;38721;53.098;6.596;2023-02-01T06:17:26;6.60;99.90
52859;DHT22;38721;53.098;6.596;2023-02-01T06:19:52;6.50;99.90
52859;DHT22;38721;53.098;6.596;2023-02-01T06:22:17;6.60;99.90
52859;DHT22;38721;53.098;6.596;2023-02-01T06:24:43;6.60;99.90
52859;DHT22;38721;53.098;6.596;2023-02-01T06:27:09;6.50;99.90
52859;DHT22;38721;53.098;6.596;2023-02-01T06:29:36;6.50;99.90
52859;DHT22;38721;53.098;6.596;2023-02-01T06:32:02;6.40;99.90
52859;DHT22;38721;53.098;6.596;2023-02-01T06:34:28;6.40;99.90
52859;DHT22;38721;53.098;6.596;2023-02-01T06:36:57;6.40;99.90
52859;DHT22;38721;53.098;6.596;2023-02-01T06:39:23;6.40;99.90
52859;DHT22;38721;53.098;6.596;2023-02-01T06:41:49;6.30;99.90
52859;DHT22;38721;53.098;6.596;2023-02-01T06:44:15;6.40;99.90
52859;DHT22;38721;53.098;6.596;2023-02-01T06:46:42;6.40;99.90
52859;DHT22;38721;53.098;6.596;2023-02-01T06:49:07;6.40;99.90
52859;DHT22;38721;53.098;6.596;2023-02-01T06:51:36;6.40;99.90
52859;DHT22;38721;53.098;6.596;2023-02-01T06:54:02;6.40;99.90
52859;DHT22;38721;53.098;6.596;2023-02-01T06:56:28;6.50;99.90
52859;DHT22;38721;53.098;6.596;2023-02-01T06:58:54;6.50;99.90
52859;DHT22;38721;53.098;6.596;2023-02-01T07:01:19;6.50;99.90
52859;DHT22;38721;53.098;6.596;2023-02-01T07:03:52;6.50;99.90
52859;DHT22;38721;53.098;6.596;2023-02-01T07:06:18;6.60;99.90
52859;DHT22;38721;53.098;6.596;2023-02-01T07:08:43;6.50;99.90
52859;DHT22;38721;53.098;6.596;2023-02-01T07:11:12;6.50;99.90
52859;DHT22;38721;53.098;6.596;2023-02-01T07:13:38;6.50;99.90
52859;DHT22;38721;53.098;6.596;2023-02-01T07:16:07;6.50;99.90
52859;DHT22;38721;53.098;6.596;2023-02-01T07:18:33;6.50;99.90
52859;DHT22;38721;53.098;6.596;2023-02-01T07:20:59;6.60;99.90
52859;DHT22;38721;53.098;6.596;2023-02-01T07:23:26;6.60;99.90
52859;DHT22;38721;53.098;6.596;2023-02-01T07:25:54;6.60;99.90
52859;DHT22;38721;53.098;6.596;2023-02-01T07:28:20;6.60;99.90
52859;DHT22;38721;53.098;6.596;2023-02-01T07:30:46;6.60;99.90
52859;DHT22;38721;53.098;6.596;2023-02-01T07:33:21;6.60;99.90
52859;DHT22;38721;53.098;6.596;2023-02-01T07:35:48;6.60;99.90
52859;DHT22;38721;53.098;6.596;2023-02-01T07:38:14;6.60;99.90
52859;DHT22;38721;53.098;6.596;2023-02-01T07:40:40;6.60;99.90
52859;DHT22;38721;53.098;6.596;2023-02-01T07:43:06;6.60;99.90
52859;DHT22;38721;53.098;6.596;2023-02-01T07:45:33;6.60;99.90
52859;DHT22;38721;53.098;6.596;2023-02-01T07:48:00;6.60;99.90
52859;DHT22;38721;53.098;6.596;2023-02-01T07:50:26;6.60;99.90
52859;DHT22;38721;53.098;6.596;2023-02-01T07:52:51;6.60;99.90
52859;DHT22;38721;53.098;6.596;2023-02-01T07:55:21;6.60;99.90
52859;DHT22;38721;53.098;6.596;2023-02-01T07:57:47;6.50;99.90
52859;DHT22;38721;53.098;6.596;2023-02-01T08:00:13;6.60;99.90
52859;DHT22;38721;53.098;6.596;2023-02-01T08:02:58;6.60;99.90
52859;DHT22;38721;53.098;6.596;2023-02-01T08:05:24;6.60;99.90
52859;DHT22;38721;53.098;6.596;2023-02-01T08:07:51;6.60;99.90
52859;DHT22;38721;53.098;6.596;2023-02-01T08:10:18;6.60;99.90
52859;DHT22;38721;53.098;6.596;2023-02-01T08:12:45;6.60;99.90
52859;DHT22;38721;53.098;6.596;2023-02-01T08:15:17;6.60;99.90
52859;DHT22;38721;53.098;6.596;2023-02-01T08:17:50;6.60;99.90
52859;DHT22;38721;53.098;6.596;2023-02-01T08:20:17;6.60;99.90
52859;DHT22;38721;53.098;6.596;2023-02-01T08:22:44;6.60;99.90
52859;DHT22;38721;53.098;6.596;2023-02-01T08:25:10;6.60;99.90
52859;DHT22;38721;53.098;6.596;2023-02-01T08:27:37;6.60;99.90
52859;DHT22;38721;53.098;6.596;2023-02-01T08:30:04;6.60;99.90
52859;DHT22;38721;53.098;6.596;2023-02-01T08:32:30;6.70;99.90
52859;DHT22;38721;53.098;6.596;2023-02-01T08:34:56;6.70;99.90
52859;DHT22;38721;53.098;6.596;2023-02-01T08:37:22;6.70;99.90
52859;DHT22;38721;53.098;6.596;2023-02-01T08:39:48;6.70;99.90
52859;DHT22;38721;53.098;6.596;2023-02-01T08:42:15;6.70;99.90
52859;DHT22;38721;53.098;6.596;2023-02-01T08:45:00;6.60;99.90
52859;DHT22;38721;53.098;6.596;2023-02-01T08:47:26;6.70;99.90
52859;DHT22;38721;53.098;6.596;2023-02-01T08:49:51;6.70;99.90
52859;DHT22;38721;53.098;6.596;2023-02-01T08:52:18;6.70;99.90
52859;DHT22;38721;53.098;6.596;2023-02-01T08:54:44;6.70;99.90
52859;DHT22;38721;53.098;6.596;2023-02-01T08:57:13;6.70;99.90
52859;DHT22;38721;53.098;6.596;2023-02-01T08:59:38;6.70;99.90
52859;DHT22;38721;53.098;6.596;2023-02-01T09:02:04;6.70;99.90
52859;DHT22;38721;53.098;6.596;2023-02-01T09:04:30;6.70;99.90
52859;DHT22;38721;53.098;6.596;2023-02-01T09:06:58;6.70;99.90
52859;DHT22;38721;53.098;6.596;2023-02-01T09:09:27;6.70;99.90
52859;DHT22;38721;53.098;6.596;2023-02-01T09:11:52;6.70;99.90
52859;DHT22;38721;53.098;6.596;2023-02-01T09:14:18;6.70;99.90
52859;DHT22;38721;53.098;6.596;2023-02-01T09:16:44;6.70;99.90
52859;DHT22;38721;53.098;6.596;2023-02-01T09:19:10;6.70;99.90
52859;DHT22;38721;53.098;6.596;2023-02-01T09:21:36;6.80;99.90
52859;DHT22;38721;53.098;6.596;2023-02-01T09:24:02;6.80;99.90
52859;DHT22;38721;53.098;6.596;2023-02-01T09:26:28;6.80;99.90
52859;DHT22;38721;53.098;6.596;2023-02-01T09:28:57;6.80;99.90
52859;DHT22;38721;53.098;6.596;2023-02-01T09:31:22;6.80;99.90
52859;DHT22;38721;53.098;6.596;2023-02-01T09:33:48;6.80;99.90
52859;DHT22;38721;53.098;6.596;2023-02-01T09:36:14;6.80;99.90
52859;DHT22;38721;53.098;6.596;2023-02-01T09:38:40;6.90;99.90
52859;DHT22;38721;53.098;6.596;2023-02-01T09:44:25;6.80;99.90
52859;DHT22;38721;53.098;6.596;2023-02-01T09:46:58;6.80;99.90
52859;DHT22;38721;53.098;6.596;2023-02-01T09:49:37;6.80;99.90
52859;DHT22;38721;53.098;6.596;2023-02-01T09:52:10;6.80;99.90
52859;DHT22;38721;53.098;6.596;2023-02-01T09:54:52;6.80;99.90
52859;DHT22;38721;53.098;6.596;2023-02-01T09:57:23;6.70;99.90
52859;DHT22;38721;53.098;6.596;2023-02-01T09:59:59;6.70;99.90
52859;DHT22;38721;53.098;6.596;2023-02-01T10:02:27;6.70;99.90
52859;DHT22;38721;53.098;6.596;2023-02-01T10:04:57;6.70;99.90
52859;DHT22;38721;53.098;6.596;2023-02-01T10:07:42;6.70;99.90
52859;DHT22;38721;53.098;6.596;2023-02-01T10:10:26;6.70;99.90
52859;DHT22;38721;53.098;6.596;2023-02-01T10:13:09;6.70;99.90
52859;DHT22;38721;53.098;6.596;2023-02-01T10:16:25;6.60;99.90
52859;DHT22;38721;53.098;6.596;2023-02-01T10:22:02;6.70;99.90
52859;DHT22;38721;53.098;6.596;2023-02-01T10:27:22;6.70;99.90
52859;DHT22;38721;53.098;6.596;2023-02-01T10:29:58;6.60;99.90
52859;DHT22;38721;53.098;6.596;2023-02-01T10:32:34;6.60;99.90
52859;DHT22;38721;53.098;6.596;2023-02-01T10:35:05;6.70;99.90
52859;DHT22;38721;53.098;6.596;2023-02-01T10:37:34;6.80;99.90
52859;DHT22;38721;53.098;6.596;2023-02-01T10:40:15;6.80;99.90
52859;DHT22;38721;53.098;6.596;2023-02-01T10:42:41;6.90;99.90
52859;DHT22;38721;53.098;6.596;2023-02-01T10:45:11;7.10;99.90
52859;DHT22;38721;53.098;6.596;2023-02-01T10:47:38;7.10;99.90
52859;DHT22;38721;53.098;6.596;2023-02-01T10:52:43;7.20;99.90
52859;DHT22;38721;53.098;6.596;2023-02-01T10:55:33;7.20;99.90
52859;DHT22;38721;53.098;6.596;2023-02-01T10:58:05;7.20;99.90
52859;DHT22;38721;53.098;6.596;2023-02-01T11:00:46;7.20;99.90
52859;DHT22;38721;53.098;6.596;2023-02-01T11:03:33;7.00;99.90
52859;DHT22;38721;53.098;6.596;2023-02-01T11:06:01;7.00;99.90
52859;DHT22;38721;53.098;6.596;2023-02-01T11:08:27;7.00;99.90
52859;DHT22;38721;53.098;6.596;2023-02-01T11:11:02;7.00;99.90
52859;DHT22;38721;53.098;6.596;2023-02-01T11:13:33;7.10;99.90
52859;DHT22;38721;53.098;6.596;2023-02-01T11:16:03;7.20;99.90
52859;DHT22;38721;53.098;6.596;2023-02-01T11:18:33;7.30;99.90
52859;DHT22;38721;53.098;6.596;2023-02-01T11:21:01;7.30;99.90
52859;DHT22;38721;53.098;6.596;2023-02-01T11:23:29;7.20;99.90
52859;DHT22;38721;53.098;6.596;2023-02-01T11:26:01;6.90;99.90
52859;DHT22;38721;53.098;6.596;2023-02-01T11:28:39;6.80;99.90
52859;DHT22;38721;53.098;6.596;2023-02-01T11:31:10;6.80;99.90
52859;DHT22;38721;53.098;6.596;2023-02-01T11:33:39;6.90;99.90
52859;DHT22;38721;53.098;6.596;2023-02-01T11:36:14;7.10;99.90
52859;DHT22;38721;53.098;6.596;2023-02-01T11:38:53;7.20;99.90
52859;DHT22;38721;53.098;6.596;2023-02-01T11:41:26;7.30;99.90
52859;DHT22;38721;53.098;6.596;2023-02-01T11:44:19;7.40;99.90
52859;DHT22;38721;53.098;6.596;2023-02-01T11:46:48;7.30;99.90
52859;DHT22;38721;53.098;6.596;2023-02-01T11:49:25;7.80;99.90
52859;DHT22;38721;53.098;6.596;2023-02-01T11:52:12;8.10;99.90
52859;DHT22;38721;53.098;6.596;2023-02-01T11:57:11;8.20;99.90
52859;DHT22;38721;53.098;6.596;2023-02-01T12:05:25;8.60;99.90
52859;DHT22;38721;53.098;6.596;2023-02-01T12:11:27;8.80;99.90
52859;DHT22;38721;53.098;6.596;2023-02-01T12:13:42;8.40;99.90
52859;DHT22;38721;53.098;6.596;2023-02-01T12:27:59;7.60;99.90
52859;DHT22;38721;53.098;6.596;2023-02-01T12:31:19;7.70;99.90
52859;DHT22;38721;53.098;6.596;2023-02-01T12:33:44;7.90;99.90
52859;DHT22;38721;53.098;6.596;2023-02-01T12:37:08;7.90;99.90
52859;DHT22;38721;53.098;6.596;2023-02-01T12:42:01;7.80;99.90
52859;DHT22;38721;53.098;6.596;2023-02-01T12:44:50;7.80;99.90
52859;DHT22;38721;53.098;6.596;2023-02-01T12:47:54;7.80;99.90
52859;DHT22;38721;53.098;6.596;2023-02-01T12:50:25;7.70;99.90
52859;DHT22;38721;53.098;6.596;2023-02-01T12:52:58;7.90;99.90
52859;DHT22;38721;53.098;6.596;2023-02-01T12:55:49;7.90;99.90
52859;DHT22;38721;53.098;6.596;2023-02-01T13:01:09;7.90;99.90
52859;DHT22;38721;53.098;6.596;2023-02-01T13:03:41;7.90;99.90
52859;DHT22;38721;53.098;6.596;2023-02-01T13:06:28;8.00;99.90
52859;DHT22;38721;53.098;6.596;2023-02-01T13:09:35;8.00;99.90
52859;DHT22;38721;53.098;6.596;2023-02-01T13:12:10;8.10;99.90
52859;DHT22;38721;53.098;6.596;2023-02-01T13:17:23;8.00;99.90
52859;DHT22;38721;53.098;6.596;2023-02-01T13:20:04;8.00;99.90
52859;DHT22;38721;53.098;6.596;2023-02-01T13:22:43;8.10;99.90
52859;DHT22;38721;53.098;6.596;2023-02-01T13:25:26;8.10;99.90
52859;DHT22;38721;53.098;6.596;2023-02-01T13:27:55;8.00;99.90
52859;DHT22;38721;53.098;6.596;2023-02-01T13:30:54;8.00;99.90
52859;DHT22;38721;53.098;6.596;2023-02-01T13:33:28;8.00;99.90
52859;DHT22;38721;53.098;6.596;2023-02-01T13:39:12;8.00;99.90
52859;DHT22;38721;53.098;6.596;2023-02-01T13:42:00;8.10;99.90
52859;DHT22;38721;53.098;6.596;2023-02-01T13:46:58;8.10;99.90
52859;DHT22;38721;53.098;6.596;2023-02-01T13:49:28;8.00;99.90
52859;DHT22;38721;53.098;6.596;2023-02-01T13:51:57;8.10;99.90
52859;DHT22;38721;53.098;6.596;2023-02-01T13:56:49;8.10;99.90
52859;DHT22;38721;53.098;6.596;2023-02-01T14:05:04;8.10;99.90
52859;DHT22;38721;53.098;6.596;2023-02-01T14:07:30;8.20;99.90
52859;DHT22;38721;53.098;6.596;2023-02-01T14:09:56;8.00;99.90
52859;DHT22;38721;53.098;6.596;2023-02-01T14:12:47;7.90;99.90
52859;DHT22;38721;53.098;6.596;2023-02-01T14:15:26;7.90;99.90
52859;DHT22;38721;53.098;6.596;2023-02-01T14:17:53;8.00;99.90
52859;DHT22;38721;53.098;6.596;2023-02-01T14:20:44;8.00;99.90
52859;DHT22;38721;53.098;6.596;2023-02-01T14:23:22;8.00;99.90
52859;DHT22;38721;53.098;6.596;2023-02-01T14:26:01;8.00;99.90
52859;DHT22;38721;53.098;6.596;2023-02-01T14:28:29;8.10;99.90
52859;DHT22;38721;53.098;6.596;2023-02-01T14:30:57;8.10;99.90
52859;DHT22;38721;53.098;6.596;2023-02-01T14:33:25;8.20;99.90
52859;DHT22;38721;53.098;6.596;2023-02-01T14:36:13;8.10;99.90
52859;DHT22;38721;53.098;6.596;2023-02-01T14:38:48;8.10;99.90
52859;DHT22;38721;53.098;6.596;2023-02-01T14:41:26;8.10;99.90
52859;DHT22;38721;53.098;6.596;2023-02-01T14:47:06;8.10;99.90
52859;DHT22;38721;53.098;6.596;2023-02-01T14:49:56;8.10;99.90
52859;DHT22;38721;53.098;6.596;2023-02-01T14:52:24;8.20;99.90
52859;DHT22;38721;53.098;6.596;2023-02-01T14:54:55;8.20;99.90
52859;DHT22;38721;53.098;6.596;2023-02-01T14:57:26;8.20;99.90
52859;DHT22;38721;53.098;6.596;2023-02-01T15:00:34;8.20;99.90
52859;DHT22;38721;53.098;6.596;2023-02-01T15:02:52;8.10;99.90
52859;DHT22;38721;53.098;6.596;2023-02-01T15:07:53;8.10;99.90
52859;DHT22;38721;53.098;6.596;2023-02-01T15:10:20;8.00;99.90
52859;DHT22;38721;53.098;6.596;2023-02-01T15:12:47;8.00;99.90
52859;DHT22;38721;53.098;6.596;2023-02-01T15:15:17;8.00;99.90
52859;DHT22;38721;53.098;6.596;2023-02-01T15:17:57;8.10;99.90
52859;DHT22;38721;53.098;6.596;2023-02-01T15:20:32;8.10;99.90
52859;DHT22;38721;53.098;6.596;2023-02-01T15:23:04;8.20;99.90
52859;DHT22;38721;53.098;6.596;2023-02-01T15:25:33;8.10;99.90
52859;DHT22;38721;53.098;6.596;2023-02-01T15:28:00;8.10;99.90
52859;DHT22;38721;53.098;6.596;2023-02-01T15:30:31;8.10;99.90
52859;DHT22;38721;53.098;6.596;2023-02-01T15:33:24;8.10;99.90
52859;DHT22;38721;53.098;6.596;2023-02-01T15:36:09;8.10;99.90
52859;DHT22;38721;53.098;6.596;2023-02-01T15:41:06;8.00;99.90
52859;DHT22;38721;53.098;6.596;2023-02-01T15:46:12;7.90;99.90
52859;DHT22;38721;53.098;6.596;2023-02-01T15:48:48;7.80;99.90
52859;DHT22;38721;53.098;6.596;2023-02-01T15:51:20;7.80;99.90
52859;DHT22;38721;53.098;6.596;2023-02-01T15:53:54;7.80;99.90
52859;DHT22;38721;53.098;6.596;2023-02-01T15:56:26;7.80;99.90
52859;DHT22;38721;53.098;6.596;2023-02-01T15:58:56;7.70;99.90
52859;DHT22;38721;53.098;6.596;2023-02-01T16:01:23;7.60;99.90
52859;DHT22;38721;53.098;6.596;2023-02-01T16:04:22;7.60;99.90
52859;DHT22;38721;53.098;6.596;2023-02-01T16:06:58;7.60;99.90
52859;DHT22;38721;53.098;6.596;2023-02-01T16:09:38;7.60;99.90
52859;DHT22;38721;53.098;6.596;2023-02-01T16:15:07;7.60;99.90
52859;DHT22;38721;53.098;6.596;2023-02-01T16:17:33;7.60;99.90
52859;DHT22;38721;53.098;6.596;2023-02-01T16:19:58;7.60;99.90
52859;DHT22;38721;53.098;6.596;2023-02-01T16:22:24;7.50;99.90
52859;DHT22;38721;53.098;6.596;2023-02-01T16:24:51;7.50;99.90
52859;DHT22;38721;53.098;6.596;2023-02-01T16:27:16;7.40;99.90
52859;DHT22;38721;53.098;6.596;2023-02-01T16:29:45;7.30;99.90
52859;DHT22;38721;53.098;6.596;2023-02-01T16:32:17;7.30;99.90
52859;DHT22;38721;53.098;6.596;2023-02-01T16:34:44;7.20;99.90
52859;DHT22;38721;53.098;6.596;2023-02-01T16:37:13;7.20;99.90
52859;DHT22;38721;53.098;6.596;2023-02-01T16:39:40;7.20;99.90
52859;DHT22;38721;53.098;6.596;2023-02-01T16:42:11;7.10;99.90
52859;DHT22;38721;53.098;6.596;2023-02-01T16:44:37;7.10;99.90
52859;DHT22;38721;53.098;6.596;2023-02-01T16:47:11;7.00;99.90
52859;DHT22;38721;53.098;6.596;2023-02-01T16:49:41;7.00;99.90
52859;DHT22;38721;53.098;6.596;2023-02-01T16:52:17;7.00;99.90
52859;DHT22;38721;53.098;6.596;2023-02-01T16:54:44;6.90;99.90
52859;DHT22;38721;53.098;6.596;2023-02-01T16:57:16;7.00;99.90
52859;DHT22;38721;53.098;6.596;2023-02-01T16:59:43;7.00;99.90
52859;DHT22;38721;53.098;6.596;2023-02-01T17:02:18;6.80;99.90
52859;DHT22;38721;53.098;6.596;2023-02-01T17:04:49;6.90;99.90
52859;DHT22;38721;53.098;6.596;2023-02-01T17:07:18;6.90;99.90
52859;DHT22;38721;53.098;6.596;2023-02-01T17:09:47;6.90;99.90
52859;DHT22;38721;53.098;6.596;2023-02-01T17:12:30;7.00;99.90
52859;DHT22;38721;53.098;6.596;2023-02-01T17:14:57;6.90;99.90
52859;DHT22;38721;53.098;6.596;2023-02-01T17:17:32;6.90;99.90
52859;DHT22;38721;53.098;6.596;2023-02-01T17:19:59;6.90;99.90
52859;DHT22;38721;53.098;6.596;2023-02-01T17:22:24;7.00;99.90
52859;DHT22;38721;53.098;6.596;2023-02-01T17:24:50;7.10;99.90
52859;DHT22;38721;53.098;6.596;2023-02-01T17:27:17;7.10;99.90
52859;DHT22;38721;53.098;6.596;2023-02-01T17:29:43;7.00;99.90
52859;DHT22;38721;53.098;6.596;2023-02-01T17:32:22;7.00;99.90
52859;DHT22;38721;53.098;6.596;2023-02-01T17:34:49;6.90;99.90
52859;DHT22;38721;53.098;6.596;2023-02-01T17:37:27;6.90;99.90
52859;DHT22;38721;53.098;6.596;2023-02-01T17:39:54;7.00;99.90
52859;DHT22;38721;53.098;6.596;2023-02-01T17:42:20;6.90;99.90
52859;DHT22;38721;53.098;6.596;2023-02-01T17:44:46;7.00;99.90
52859;DHT22;38721;53.098;6.596;2023-02-01T17:47:12;7.00;99.90
52859;DHT22;38721;53.098;6.596;2023-02-01T17:49:37;7.00;1.00
52859;DHT22;38721;53.098;6.596;2023-02-01T17:52:04;7.00;99.90
52859;DHT22;38721;53.098;6.596;2023-02-01T17:54:33;6.90;99.90
52859;DHT22;38721;53.098;6.596;2023-02-01T17:56:59;6.90;99.90